SLCO/CIJ METAR and TAF weather

Enter ICAO airport designator
Station Type Date Time Source
SLCO METAR 2022/11/29 21:00 UTC NOAA

SLCO 292100Z 02008KT 9999 FEW030 34/21 Q1001


Station Type Date Time Source
SLCO Decoded METAR 2022/11/29 21:00 UTC NOAA

Cobija, Bolivia (SLCO) 11-02S 068-47W 260M
Nov 29, 2022 - 04:00 PM EST / 2022.11.29 2100 UTC
Wind: from the NNE (020 degrees) at 9 MPH (8 KT):0
Visibility: greater than 7 mile(s):0
Sky conditions: mostly clear
Temperature: 93 F (34 C)
Heat index: 98.4 F (36.9 C):1
Dew Point: 69 F (21 C)
Relative Humidity: 46%
Pressure (altimeter): 29.56 in. Hg (1001 hPa)
ob: SLCO 292100Z 02008KT 9999 FEW030 34/21 Q1001
cycle: 21

Station Type Date Time Source
SLCO TAF 2022/11/30 06:50 UTC NOAA

TAF SLCO 300400Z 3006/0106 00000KT 9999 FEW015 TX36/3019Z TN23/3010Z
BECMG 3012/3015 34008KT SCT020 PROB30
TEMPO 3016/3020 FEW025CB
BECMG 3022/0101 000000KT

Example: see airport list